sensor_id;sensor_type;location;lat;lon;timestamp;pressure;altitude;pressure_sealevel;temperature;humidity
78741;BME280;68062;48.726;9.370;2023-07-22T00:00:54;98697.50;;;12.05;100.00
78741;BME280;68062;48.726;9.370;2023-07-22T00:03:22;98706.22;;;11.90;100.00
78741;BME280;68062;48.726;9.370;2023-07-22T00:06:02;98713.84;;;12.04;100.00
78741;BME280;68062;48.726;9.370;2023-07-22T00:08:29;98708.56;;;12.15;100.00
78741;BME280;68062;48.726;9.370;2023-07-22T00:10:56;98716.59;;;11.79;100.00
78741;BME280;68062;48.726;9.370;2023-07-22T00:13:23;98719.22;;;11.71;100.00
78741;BME280;68062;48.726;9.370;2023-07-22T00:15:52;98714.88;;;11.80;100.00
78741;BME280;68062;48.726;9.370;2023-07-22T00:18:19;98717.47;;;11.80;100.00
78741;BME280;68062;48.726;9.370;2023-07-22T00:20:47;98726.22;;;11.54;100.00
78741;BME280;68062;48.726;9.370;2023-07-22T00:23:15;98715.91;;;11.57;100.00
78741;BME280;68062;48.726;9.370;2023-07-22T00:25:42;98719.25;;;11.68;100.00
78741;BME280;68062;48.726;9.370;2023-07-22T00:28:09;98719.97;;;11.84;100.00
78741;BME280;68062;48.726;9.370;2023-07-22T00:30:35;98717.47;;;11.76;100.00
78741;BME280;68062;48.726;9.370;2023-07-22T00:33:02;98724.16;;;11.98;100.00
78741;BME280;68062;48.726;9.370;2023-07-22T00:35:29;98717.25;;;12.04;100.00
78741;BME280;68062;48.726;9.370;2023-07-22T00:37:58;98712.94;;;12.08;100.00
78741;BME280;68062;48.726;9.370;2023-07-22T00:40:25;98716.44;;;12.01;100.00
78741;BME280;68062;48.726;9.370;2023-07-22T00:42:51;98713.28;;;11.61;100.00
78741;BME280;68062;48.726;9.370;2023-07-22T00:45:18;98706.53;;;11.46;100.00
78741;BME280;68062;48.726;9.370;2023-07-22T00:47:46;98716.94;;;11.23;100.00
78741;BME280;68062;48.726;9.370;2023-07-22T00:50:13;98706.66;;;11.17;100.00
78741;BME280;68062;48.726;9.370;2023-07-22T00:52:40;98711.72;;;11.40;100.00
78741;BME280;68062;48.726;9.370;2023-07-22T00:55:09;98714.28;;;11.36;100.00
78741;BME280;68062;48.726;9.370;2023-07-22T00:57:36;98711.72;;;11.32;100.00
78741;BME280;68062;48.726;9.370;2023-07-22T01:00:04;98701.41;;;11.40;100.00
78741;BME280;68062;48.726;9.370;2023-07-22T01:02:32;98703.91;;;11.48;100.00
78741;BME280;68062;48.726;9.370;2023-07-22T01:05:00;98709.25;;;11.18;100.00
78741;BME280;68062;48.726;9.370;2023-07-22T01:07:27;98700.69;;;11.16;100.00
78741;BME280;68062;48.726;9.370;2023-07-22T01:09:56;98710.09;;;11.16;100.00
78741;BME280;68062;48.726;9.370;2023-07-22T01:12:25;98708.44;;;11.06;100.00
78741;BME280;68062;48.726;9.370;2023-07-22T01:14:51;98702.38;;;11.19;100.00
78741;BME280;68062;48.726;9.370;2023-07-22T01:17:18;98698.78;;;11.46;100.00
78741;BME280;68062;48.726;9.370;2023-07-22T01:19:46;98687.56;;;11.57;100.00
78741;BME280;68062;48.726;9.370;2023-07-22T01:22:13;98694.38;;;11.67;100.00
78741;BME280;68062;48.726;9.370;2023-07-22T01:24:42;98694.34;;;11.70;100.00
78741;BME280;68062;48.726;9.370;2023-07-22T01:27:09;98662.69;;;11.56;100.00
78741;BME280;68062;48.726;9.370;2023-07-22T01:29:36;98690.97;;;11.57;100.00
78741;BME280;68062;48.726;9.370;2023-07-22T01:32:03;98691.19;;;11.23;100.00
78741;BME280;68062;48.726;9.370;2023-07-22T01:34:30;98680.94;;;11.17;100.00
78741;BME280;68062;48.726;9.370;2023-07-22T01:36:58;98678.19;;;11.45;100.00
78741;BME280;68062;48.726;9.370;2023-07-22T01:39:25;98695.41;;;11.41;100.00
78741;BME280;68062;48.726;9.370;2023-07-22T01:41:54;98687.63;;;11.47;100.00
78741;BME280;68062;48.726;9.370;2023-07-22T01:44:21;98686.81;;;11.38;100.00
78741;BME280;68062;48.726;9.370;2023-07-22T01:46:48;98684.25;;;11.39;100.00
78741;BME280;68062;48.726;9.370;2023-07-22T01:49:14;98691.09;;;11.43;100.00
78741;BME280;68062;48.726;9.370;2023-07-22T01:51:42;98696.38;;;11.18;100.00
78741;BME280;68062;48.726;9.370;2023-07-22T01:54:09;98687.84;;;11.10;100.00
78741;BME280;68062;48.726;9.370;2023-07-22T01:56:36;98696.31;;;11.29;100.00
78741;BME280;68062;48.726;9.370;2023-07-22T01:59:05;98680.81;;;11.37;100.00
78741;BME280;68062;48.726;9.370;2023-07-22T02:01:32;98689.50;;;11.24;100.00
78741;BME280;68062;48.726;9.370;2023-07-22T02:03:58;98693.75;;;11.28;100.00
78741;BME280;68062;48.726;9.370;2023-07-22T02:06:26;98680.91;;;11.20;100.00
78741;BME280;68062;48.726;9.370;2023-07-22T02:08:54;98694.63;;;11.25;100.00
78741;BME280;68062;48.726;9.370;2023-07-22T02:11:21;98687.91;;;10.90;100.00
78741;BME280;68062;48.726;9.370;2023-07-22T02:13:48;98690.53;;;10.78;100.00
78741;BME280;68062;48.726;9.370;2023-07-22T02:16:16;98689.69;;;10.79;100.00
78741;BME280;68062;48.726;9.370;2023-07-22T02:18:44;98694.00;;;10.75;100.00
78741;BME280;68062;48.726;9.370;2023-07-22T02:21:12;98697.41;;;10.72;100.00
78741;BME280;68062;48.726;9.370;2023-07-22T02:23:38;98696.50;;;10.86;100.00
78741;BME280;68062;48.726;9.370;2023-07-22T02:26:05;98702.47;;;11.02;100.00
78741;BME280;68062;48.726;9.370;2023-07-22T02:28:32;98699.81;;;11.16;100.00
78741;BME280;68062;48.726;9.370;2023-07-22T02:31:02;98699.00;;;11.04;100.00
78741;BME280;68062;48.726;9.370;2023-07-22T02:33:32;98706.81;;;10.80;100.00
78741;BME280;68062;48.726;9.370;2023-07-22T02:35:59;98698.22;;;10.90;100.00
78741;BME280;68062;48.726;9.370;2023-07-22T02:38:26;98715.28;;;11.10;100.00
78741;BME280;68062;48.726;9.370;2023-07-22T02:40:53;98715.34;;;11.02;100.00
78741;BME280;68062;48.726;9.370;2023-07-22T02:43:19;98710.19;;;10.97;100.00
78741;BME280;68062;48.726;9.370;2023-07-22T02:45:46;98719.69;;;10.77;100.00
78741;BME280;68062;48.726;9.370;2023-07-22T02:48:13;98712.81;;;10.88;100.00
78741;BME280;68062;48.726;9.370;2023-07-22T02:50:41;98711.00;;;11.06;100.00
78741;BME280;68062;48.726;9.370;2023-07-22T02:53:08;98717.91;;;11.00;100.00
78741;BME280;68062;48.726;9.370;2023-07-22T02:55:35;98711.94;;;10.97;100.00
78741;BME280;68062;48.726;9.370;2023-07-22T02:58:01;98715.31;;;11.03;100.00
78741;BME280;68062;48.726;9.370;2023-07-22T03:00:28;98720.50;;;10.99;100.00
78741;BME280;68062;48.726;9.370;2023-07-22T03:02:56;98712.81;;;10.85;100.00
78741;BME280;68062;48.726;9.370;2023-07-22T03:05:26;98696.59;;;10.66;100.00
78741;BME280;68062;48.726;9.370;2023-07-22T03:07:56;98715.44;;;10.72;100.00
78741;BME280;68062;48.726;9.370;2023-07-22T03:10:23;98701.66;;;10.83;100.00
78741;BME280;68062;48.726;9.370;2023-07-22T03:12:51;98708.53;;;10.84;100.00
78741;BME280;68062;48.726;9.370;2023-07-22T03:15:21;98714.53;;;10.87;100.00
78741;BME280;68062;48.726;9.370;2023-07-22T03:17:48;98704.22;;;10.86;100.00
78741;BME280;68062;48.726;9.370;2023-07-22T03:20:15;98707.78;;;10.60;100.00
78741;BME280;68062;48.726;9.370;2023-07-22T03:22:45;98709.50;;;10.47;100.00
78741;BME280;68062;48.726;9.370;2023-07-22T03:25:14;98713.81;;;10.43;100.00
78741;BME280;68062;48.726;9.370;2023-07-22T03:27:43;98706.09;;;10.47;100.00
78741;BME280;68062;48.726;9.370;2023-07-22T03:30:12;98704.34;;;10.59;100.00
78741;BME280;68062;48.726;9.370;2023-07-22T03:32:40;98706.00;;;10.71;100.00
78741;BME280;68062;48.726;9.370;2023-07-22T03:35:08;98700.84;;;10.78;100.00
78741;BME280;68062;48.726;9.370;2023-07-22T03:37:36;98688.00;;;10.70;100.00
78741;BME280;68062;48.726;9.370;2023-07-22T03:40:04;98703.34;;;10.90;100.00
78741;BME280;68062;48.726;9.370;2023-07-22T03:42:34;98707.63;;;10.99;100.00
78741;BME280;68062;48.726;9.370;2023-07-22T03:45:01;98711.94;;;10.91;100.00
78741;BME280;68062;48.726;9.370;2023-07-22T03:47:27;98707.75;;;10.65;100.00
78741;BME280;68062;48.726;9.370;2023-07-22T03:49:54;98712.03;;;10.69;100.00
78741;BME280;68062;48.726;9.370;2023-07-22T03:52:22;98705.09;;;10.85;100.00
78741;BME280;68062;48.726;9.370;2023-07-22T03:54:49;98709.34;;;11.00;100.00
78741;BME280;68062;48.726;9.370;2023-07-22T03:57:16;98712.75;;;11.00;100.00
78741;BME280;68062;48.726;9.370;2023-07-22T03:59:44;98715.38;;;10.89;100.00
78741;BME280;68062;48.726;9.370;2023-07-22T04:02:11;98712.00;;;10.67;100.00
78741;BME280;68062;48.726;9.370;2023-07-22T04:04:37;98716.34;;;10.59;100.00
78741;BME280;68062;48.726;9.370;2023-07-22T04:07:04;98712.94;;;10.51;100.00
78741;BME280;68062;48.726;9.370;2023-07-22T04:09:33;98712.09;;;10.45;100.00
78741;BME280;68062;48.726;9.370;2023-07-22T04:12:00;98710.25;;;10.82;100.00
78741;BME280;68062;48.726;9.370;2023-07-22T04:14:27;98696.44;;;11.06;100.00
78741;BME280;68062;48.726;9.370;2023-07-22T04:16:55;98699.00;;;11.08;100.00
78741;BME280;68062;48.726;9.370;2023-07-22T04:19:21;98699.91;;;10.99;100.00
78741;BME280;68062;48.726;9.370;2023-07-22T04:21:48;98699.00;;;11.04;100.00
78741;BME280;68062;48.726;9.370;2023-07-22T04:24:15;98702.53;;;10.86;100.00
78741;BME280;68062;48.726;9.370;2023-07-22T04:26:42;98694.00;;;10.78;100.00
78741;BME280;68062;48.726;9.370;2023-07-22T04:29:10;98699.16;;;10.69;100.00
78741;BME280;68062;48.726;9.370;2023-07-22T04:31:37;98699.19;;;10.63;100.00
78741;BME280;68062;48.726;9.370;2023-07-22T04:34:05;98694.75;;;10.99;100.00
78741;BME280;68062;48.726;9.370;2023-07-22T04:36:33;98695.63;;;10.90;100.00
78741;BME280;68062;48.726;9.370;2023-07-22T04:38:59;98692.22;;;10.85;100.00
78741;BME280;68062;48.726;9.370;2023-07-22T04:41:26;98689.63;;;10.91;100.00
78741;BME280;68062;48.726;9.370;2023-07-22T04:43:52;98697.34;;;10.94;100.00
78741;BME280;68062;48.726;9.370;2023-07-22T04:46:19;98699.00;;;11.09;100.00
78741;BME280;68062;48.726;9.370;2023-07-22T04:48:46;98699.69;;;11.42;100.00
78741;BME280;68062;48.726;9.370;2023-07-22T04:51:13;98705.72;;;11.38;100.00
78741;BME280;68062;48.726;9.370;2023-07-22T04:53:41;98710.84;;;11.37;100.00
78741;BME280;68062;48.726;9.370;2023-07-22T04:56:09;98709.19;;;11.29;100.00
78741;BME280;68062;48.726;9.370;2023-07-22T04:58:36;98711.75;;;11.31;100.00
78741;BME280;68062;48.726;9.370;2023-07-22T05:01:02;98709.09;;;11.42;100.00
78741;BME280;68062;48.726;9.370;2023-07-22T05:03:29;98711.56;;;11.62;100.00
78741;BME280;68062;48.726;9.370;2023-07-22T05:05:55;98712.25;;;11.86;100.00
78741;BME280;68062;48.726;9.370;2023-07-22T05:08:24;98707.97;;;11.83;100.00
78741;BME280;68062;48.726;9.370;2023-07-22T05:10:51;98715.69;;;11.83;100.00
78741;BME280;68062;48.726;9.370;2023-07-22T05:13:17;98712.22;;;11.89;100.00
78741;BME280;68062;48.726;9.370;2023-07-22T05:15:44;98708.72;;;11.93;100.00
78741;BME280;68062;48.726;9.370;2023-07-22T05:18:10;98707.88;;;11.96;100.00
78741;BME280;68062;48.726;9.370;2023-07-22T05:20:37;98712.75;;;12.28;100.00
78741;BME280;68062;48.726;9.370;2023-07-22T05:23:04;98717.78;;;12.42;100.00
78741;BME280;68062;48.726;9.370;2023-07-22T05:25:32;98710.03;;;12.45;100.00
78741;BME280;68062;48.726;9.370;2023-07-22T05:27:59;98717.63;;;12.56;100.00
78741;BME280;68062;48.726;9.370;2023-07-22T05:30:25;98727.91;;;12.61;100.00
78741;BME280;68062;48.726;9.370;2023-07-22T05:32:52;98722.69;;;12.65;100.00
78741;BME280;68062;48.726;9.370;2023-07-22T05:35:19;98725.22;;;12.72;100.00
78741;BME280;68062;48.726;9.370;2023-07-22T05:37:46;98725.13;;;12.79;100.00
78741;BME280;68062;48.726;9.370;2023-07-22T05:40:13;98722.44;;;12.87;100.00
78741;BME280;68062;48.726;9.370;2023-07-22T05:42:41;98727.50;;;12.97;100.00
78741;BME280;68062;48.726;9.370;2023-07-22T05:45:08;98736.84;;;13.07;100.00
78741;BME280;68062;48.726;9.370;2023-07-22T05:47:39;98739.47;;;13.04;100.00
78741;BME280;68062;48.726;9.370;2023-07-22T05:50:06;98731.63;;;13.10;100.00
78741;BME280;68062;48.726;9.370;2023-07-22T05:52:33;98736.34;;;13.46;100.00
78741;BME280;68062;48.726;9.370;2023-07-22T05:55:00;98736.00;;;13.72;100.00
78741;BME280;68062;48.726;9.370;2023-07-22T05:57:27;98743.41;;;13.92;100.00
78741;BME280;68062;48.726;9.370;2023-07-22T05:59:55;98741.66;;;13.94;100.00
78741;BME280;68062;48.726;9.370;2023-07-22T06:02:22;98737.31;;;13.98;97.95
78741;BME280;68062;48.726;9.370;2023-07-22T06:04:48;98739.81;;;14.04;98.76
78741;BME280;68062;48.726;9.370;2023-07-22T06:07:15;98741.22;;;14.24;99.65
78741;BME280;68062;48.726;9.370;2023-07-22T06:09:42;98746.44;;;14.21;97.35
78741;BME280;68062;48.726;9.370;2023-07-22T06:12:09;98740.84;;;14.44;95.39
78741;BME280;68062;48.726;9.370;2023-07-22T06:14:35;98744.72;;;14.70;93.77
78741;BME280;68062;48.726;9.370;2023-07-22T06:17:04;98742.13;;;14.70;91.16
78741;BME280;68062;48.726;9.370;2023-07-22T06:19:30;98745.25;;;14.86;90.42
78741;BME280;68062;48.726;9.370;2023-07-22T06:21:57;98748.47;;;14.99;89.43
78741;BME280;68062;48.726;9.370;2023-07-22T06:24:23;98742.25;;;15.08;87.88
78741;BME280;68062;48.726;9.370;2023-07-22T06:26:50;98733.53;;;15.12;89.03
78741;BME280;68062;48.726;9.370;2023-07-22T06:29:16;98737.44;;;15.32;88.53
78741;BME280;68062;48.726;9.370;2023-07-22T06:31:43;98735.44;;;15.43;85.85
78741;BME280;68062;48.726;9.370;2023-07-22T06:34:11;98734.69;;;15.38;86.76
78741;BME280;68062;48.726;9.370;2023-07-22T06:36:37;98738.03;;;15.43;85.39
78741;BME280;68062;48.726;9.370;2023-07-22T06:39:04;98743.41;;;15.73;84.64
78741;BME280;68062;48.726;9.370;2023-07-22T06:41:30;98751.69;;;15.91;84.95
78741;BME280;68062;48.726;9.370;2023-07-22T06:43:57;98751.69;;;16.27;83.33
78741;BME280;68062;48.726;9.370;2023-07-22T06:46:24;98744.41;;;16.40;81.82
78741;BME280;68062;48.726;9.370;2023-07-22T06:48:51;98753.72;;;16.48;79.78
78741;BME280;68062;48.726;9.370;2023-07-22T06:51:19;98756.47;;;16.42;80.74
78741;BME280;68062;48.726;9.370;2023-07-22T06:53:46;98748.16;;;16.62;79.64
78741;BME280;68062;48.726;9.370;2023-07-22T06:56:13;98744.13;;;16.84;78.82
78741;BME280;68062;48.726;9.370;2023-07-22T06:58:39;98749.28;;;17.17;77.61
78741;BME280;68062;48.726;9.370;2023-07-22T07:01:06;98745.25;;;17.06;76.83
78741;BME280;68062;48.726;9.370;2023-07-22T07:03:32;98745.03;;;17.14;77.31
78741;BME280;68062;48.726;9.370;2023-07-22T07:05:59;98745.09;;;17.13;76.87
78741;BME280;68062;48.726;9.370;2023-07-22T07:08:28;98743.06;;;17.23;77.85
78741;BME280;68062;48.726;9.370;2023-07-22T07:10:55;98748.13;;;17.56;75.96
78741;BME280;68062;48.726;9.370;2023-07-22T07:13:22;98745.16;;;17.68;76.13
78741;BME280;68062;48.726;9.370;2023-07-22T07:15:48;98748.53;;;18.76;70.46
78741;BME280;68062;48.726;9.370;2023-07-22T07:18:15;98740.50;;;19.76;67.91
78741;BME280;68062;48.726;9.370;2023-07-22T07:20:43;98741.56;;;20.36;64.11
78741;BME280;68062;48.726;9.370;2023-07-22T07:23:09;98733.25;;;21.26;61.90
78741;BME280;68062;48.726;9.370;2023-07-22T07:25:37;98732.63;;;21.02;63.68
78741;BME280;68062;48.726;9.370;2023-07-22T07:28:04;98738.63;;;21.23;61.92
78741;BME280;68062;48.726;9.370;2023-07-22T07:30:31;98701.69;;;22.04;58.89
78741;BME280;68062;48.726;9.370;2023-07-22T07:32:58;98738.00;;;22.63;57.65
78741;BME280;68062;48.726;9.370;2023-07-22T07:35:25;98730.47;;;22.04;58.63
78741;BME280;68062;48.726;9.370;2023-07-22T07:37:52;98736.53;;;22.05;57.89
78741;BME280;68062;48.726;9.370;2023-07-22T07:40:19;98740.13;;;23.06;56.27
78741;BME280;68062;48.726;9.370;2023-07-22T07:42:49;98734.69;;;22.93;54.92
78741;BME280;68062;48.726;9.370;2023-07-22T07:45:16;98730.50;;;23.71;54.37
78741;BME280;68062;48.726;9.370;2023-07-22T07:47:43;98719.72;;;24.82;51.85
78741;BME280;68062;48.726;9.370;2023-07-22T07:50:10;98719.19;;;23.71;54.22
78741;BME280;68062;48.726;9.370;2023-07-22T07:52:37;98726.16;;;24.47;52.70
78741;BME280;68062;48.726;9.370;2023-07-22T07:55:05;98719.91;;;25.08;50.59
78741;BME280;68062;48.726;9.370;2023-07-22T07:57:32;98727.31;;;25.98;48.61
78741;BME280;68062;48.726;9.370;2023-07-22T08:00:00;98713.41;;;26.36;46.84
78741;BME280;68062;48.726;9.370;2023-07-22T08:02:30;98723.22;;;25.94;47.33
78741;BME280;68062;48.726;9.370;2023-07-22T08:04:56;98726.03;;;26.96;46.63
78741;BME280;68062;48.726;9.370;2023-07-22T08:07:23;98716.88;;;26.37;47.65
78741;BME280;68062;48.726;9.370;2023-07-22T08:09:50;98712.91;;;27.57;44.37
78741;BME280;68062;48.726;9.370;2023-07-22T08:12:18;98717.09;;;25.93;46.44
78741;BME280;68062;48.726;9.370;2023-07-22T08:14:45;98726.16;;;23.40;53.61
78741;BME280;68062;48.726;9.370;2023-07-22T08:17:13;98717.97;;;24.37;51.37
78741;BME280;68062;48.726;9.370;2023-07-22T08:19:40;98710.22;;;26.31;48.41
78741;BME280;68062;48.726;9.370;2023-07-22T08:22:10;98708.28;;;26.07;48.68
78741;BME280;68062;48.726;9.370;2023-07-22T08:24:36;98710.16;;;27.22;45.49
78741;BME280;68062;48.726;9.370;2023-07-22T08:27:04;98696.97;;;28.06;42.40
78741;BME280;68062;48.726;9.370;2023-07-22T08:29:32;98695.28;;;28.52;42.78
78741;BME280;68062;48.726;9.370;2023-07-22T08:31:59;98694.19;;;27.96;42.61
78741;BME280;68062;48.726;9.370;2023-07-22T08:34:27;98697.78;;;26.85;44.32
78741;BME280;68062;48.726;9.370;2023-07-22T08:36:54;98693.66;;;26.94;45.02
78741;BME280;68062;48.726;9.370;2023-07-22T08:39:21;98691.81;;;27.07;44.94
78741;BME280;68062;48.726;9.370;2023-07-22T08:41:49;98687.31;;;27.34;43.66
78741;BME280;68062;48.726;9.370;2023-07-22T08:44:19;98681.34;;;28.61;41.74
78741;BME280;68062;48.726;9.370;2023-07-22T08:46:46;98678.31;;;28.32;41.53
78741;BME280;68062;48.726;9.370;2023-07-22T08:49:15;98681.41;;;26.93;41.73
78741;BME280;68062;48.726;9.370;2023-07-22T08:51:44;98677.81;;;25.63;43.40
78741;BME280;68062;48.726;9.370;2023-07-22T08:54:13;98684.81;;;26.56;41.01
78741;BME280;68062;48.726;9.370;2023-07-22T08:56:39;98668.25;;;27.90;35.74
78741;BME280;68062;48.726;9.370;2023-07-22T08:59:07;98674.06;;;26.59;38.55
78741;BME280;68062;48.726;9.370;2023-07-22T09:01:34;98669.94;;;27.55;38.29
78741;BME280;68062;48.726;9.370;2023-07-22T09:04:02;98658.16;;;26.35;38.39
78741;BME280;68062;48.726;9.370;2023-07-22T09:06:29;98667.25;;;27.31;37.13
78741;BME280;68062;48.726;9.370;2023-07-22T09:08:58;98667.84;;;26.34;36.82
78741;BME280;68062;48.726;9.370;2023-07-22T09:11:26;98665.53;;;26.42;37.67
78741;BME280;68062;48.726;9.370;2023-07-22T09:13:53;98664.75;;;27.29;36.92
78741;BME280;68062;48.726;9.370;2023-07-22T09:16:21;98662.06;;;27.05;36.49
78741;BME280;68062;48.726;9.370;2023-07-22T09:18:48;98659.38;;;26.68;36.61
78741;BME280;68062;48.726;9.370;2023-07-22T09:21:15;98652.50;;;26.78;36.70
78741;BME280;68062;48.726;9.370;2023-07-22T09:23:44;98652.44;;;27.17;35.95
78741;BME280;68062;48.726;9.370;2023-07-22T09:26:13;98649.31;;;27.60;34.86
78741;BME280;68062;48.726;9.370;2023-07-22T09:28:51;98649.72;;;28.37;34.33
78741;BME280;68062;48.726;9.370;2023-07-22T09:31:19;98648.41;;;28.88;32.80
78741;BME280;68062;48.726;9.370;2023-07-22T09:33:47;98632.56;;;29.21;32.80
78741;BME280;68062;48.726;9.370;2023-07-22T09:36:13;98630.41;;;27.78;32.88
78741;BME280;68062;48.726;9.370;2023-07-22T09:38:40;98600.94;;;27.36;33.87
78741;BME280;68062;48.726;9.370;2023-07-22T09:41:07;98632.72;;;28.05;33.51
78741;BME280;68062;48.726;9.370;2023-07-22T09:43:39;98639.50;;;27.01;33.77
78741;BME280;68062;48.726;9.370;2023-07-22T09:46:07;98647.00;;;26.18;34.37
78741;BME280;68062;48.726;9.370;2023-07-22T09:48:39;98635.13;;;25.45;36.38
78741;BME280;68062;48.726;9.370;2023-07-22T09:51:11;98639.75;;;25.26;37.15
78741;BME280;68062;48.726;9.370;2023-07-22T09:53:44;98632.63;;;24.72;37.76
78741;BME280;68062;48.726;9.370;2023-07-22T09:56:10;98651.03;;;24.29;38.13
78741;BME280;68062;48.726;9.370;2023-07-22T09:58:39;98633.63;;;23.97;40.47
78741;BME280;68062;48.726;9.370;2023-07-22T10:01:07;98642.53;;;24.25;40.55
78741;BME280;68062;48.726;9.370;2023-07-22T10:03:36;98635.38;;;24.13;40.36
78741;BME280;68062;48.726;9.370;2023-07-22T10:06:05;98637.72;;;24.61;40.21
78741;BME280;68062;48.726;9.370;2023-07-22T10:08:34;98602.03;;;25.40;38.20
78741;BME280;68062;48.726;9.370;2023-07-22T10:11:03;98630.81;;;25.97;37.09
78741;BME280;68062;48.726;9.370;2023-07-22T10:13:32;98627.06;;;25.33;37.74
78741;BME280;68062;48.726;9.370;2023-07-22T10:16:01;98630.44;;;25.63;37.79
78741;BME280;68062;48.726;9.370;2023-07-22T10:18:28;98625.75;;;25.94;36.63
78741;BME280;68062;48.726;9.370;2023-07-22T10:20:58;98622.84;;;25.03;38.13
78741;BME280;68062;48.726;9.370;2023-07-22T10:23:26;98607.16;;;25.56;38.27
78741;BME280;68062;48.726;9.370;2023-07-22T10:25:53;98624.69;;;25.83;35.99
78741;BME280;68062;48.726;9.370;2023-07-22T10:28:21;98624.75;;;26.22;36.66
78741;BME280;68062;48.726;9.370;2023-07-22T10:30:48;98621.06;;;26.88;36.47
78741;BME280;68062;48.726;9.370;2023-07-22T10:33:16;98613.63;;;27.55;33.03
78741;BME280;68062;48.726;9.370;2023-07-22T10:35:47;98619.22;;;27.86;32.92
78741;BME280;68062;48.726;9.370;2023-07-22T10:38:27;98622.00;;;27.96;32.66
78741;BME280;68062;48.726;9.370;2023-07-22T10:40:55;98617.97;;;28.60;31.83
78741;BME280;68062;48.726;9.370;2023-07-22T10:43:25;98605.16;;;28.44;31.94
78741;BME280;68062;48.726;9.370;2023-07-22T10:45:53;98610.25;;;27.28;33.49
78741;BME280;68062;48.726;9.370;2023-07-22T10:48:23;98607.28;;;27.09;33.54
78741;BME280;68062;48.726;9.370;2023-07-22T10:50:53;98601.47;;;27.28;33.81
78741;BME280;68062;48.726;9.370;2023-07-22T10:53:27;98606.25;;;25.83;35.94
78741;BME280;68062;48.726;9.370;2023-07-22T10:56:11;98605.84;;;26.41;34.96
78741;BME280;68062;48.726;9.370;2023-07-22T10:58:58;98601.69;;;25.60;35.80
78741;BME280;68062;48.726;9.370;2023-07-22T11:01:36;98599.84;;;25.07;37.01
78741;BME280;68062;48.726;9.370;2023-07-22T11:04:10;98593.44;;;26.18;35.71
78741;BME280;68062;48.726;9.370;2023-07-22T11:06:39;98596.06;;;26.68;35.04
78741;BME280;68062;48.726;9.370;2023-07-22T11:09:06;98583.19;;;26.89;33.69
78741;BME280;68062;48.726;9.370;2023-07-22T11:11:37;98586.38;;;26.68;34.34
78741;BME280;68062;48.726;9.370;2023-07-22T11:14:14;98590.22;;;26.51;35.20
78741;BME280;68062;48.726;9.370;2023-07-22T11:16:44;98591.81;;;25.76;35.98
78741;BME280;68062;48.726;9.370;2023-07-22T11:19:12;98581.31;;;26.41;34.93
78741;BME280;68062;48.726;9.370;2023-07-22T11:21:39;98572.13;;;27.32;33.90
78741;BME280;68062;48.726;9.370;2023-07-22T11:24:07;98577.88;;;27.62;33.24
78741;BME280;68062;48.726;9.370;2023-07-22T11:26:34;98569.69;;;27.54;33.73
78741;BME280;68062;48.726;9.370;2023-07-22T11:29:01;98566.34;;;27.03;34.09
78741;BME280;68062;48.726;9.370;2023-07-22T11:31:31;98557.88;;;27.11;34.81
78741;BME280;68062;48.726;9.370;2023-07-22T11:33:58;98562.25;;;27.59;34.17
78741;BME280;68062;48.726;9.370;2023-07-22T11:36:26;98567.94;;;27.41;34.58
78741;BME280;68062;48.726;9.370;2023-07-22T11:38:53;98567.25;;;25.63;36.86
78741;BME280;68062;48.726;9.370;2023-07-22T11:41:20;98554.97;;;27.38;34.35
78741;BME280;68062;48.726;9.370;2023-07-22T11:43:47;98558.69;;;27.71;32.79
78741;BME280;68062;48.726;9.370;2023-07-22T11:46:13;98563.81;;;27.50;34.35
78741;BME280;68062;48.726;9.370;2023-07-22T11:48:49;98556.69;;;28.43;32.22
78741;BME280;68062;48.726;9.370;2023-07-22T11:51:16;98546.28;;;28.86;32.02
78741;BME280;68062;48.726;9.370;2023-07-22T11:53:46;98541.09;;;28.29;32.73
78741;BME280;68062;48.726;9.370;2023-07-22T11:56:17;98524.78;;;29.33;31.31
78741;BME280;68062;48.726;9.370;2023-07-22T11:58:48;98531.69;;;28.47;32.22
78741;BME280;68062;48.726;9.370;2023-07-22T12:01:15;98532.56;;;28.25;32.11
78741;BME280;68062;48.726;9.370;2023-07-22T12:03:42;98508.03;;;28.12;33.26
78741;BME280;68062;48.726;9.370;2023-07-22T12:06:09;98521.34;;;27.53;33.52
78741;BME280;68062;48.726;9.370;2023-07-22T12:08:36;98521.03;;;27.45;33.77
78741;BME280;68062;48.726;9.370;2023-07-22T12:11:04;98516.06;;;27.53;33.83
78741;BME280;68062;48.726;9.370;2023-07-22T12:13:36;98522.09;;;28.24;33.15
78741;BME280;68062;48.726;9.370;2023-07-22T12:16:03;98521.16;;;27.08;34.83
78741;BME280;68062;48.726;9.370;2023-07-22T12:18:41;98507.66;;;26.88;35.12
78741;BME280;68062;48.726;9.370;2023-07-22T12:21:08;98514.16;;;27.78;34.18
78741;BME280;68062;48.726;9.370;2023-07-22T12:23:36;98506.59;;;27.85;33.57
78741;BME280;68062;48.726;9.370;2023-07-22T12:26:04;98495.72;;;28.68;33.56
78741;BME280;68062;48.726;9.370;2023-07-22T12:28:57;98499.25;;;28.11;33.25
78741;BME280;68062;48.726;9.370;2023-07-22T12:31:25;98494.44;;;30.01;31.42
78741;BME280;68062;48.726;9.370;2023-07-22T12:33:51;98504.22;;;29.58;32.22
78741;BME280;68062;48.726;9.370;2023-07-22T12:36:18;98504.72;;;29.73;31.78
78741;BME280;68062;48.726;9.370;2023-07-22T12:38:44;98503.59;;;27.31;34.56
78741;BME280;68062;48.726;9.370;2023-07-22T12:41:13;98468.47;;;26.70;35.13
78741;BME280;68062;48.726;9.370;2023-07-22T12:43:39;98495.31;;;28.72;32.98
78741;BME280;68062;48.726;9.370;2023-07-22T12:46:06;98498.56;;;30.34;31.11
78741;BME280;68062;48.726;9.370;2023-07-22T12:48:33;98487.69;;;30.28;31.30
78741;BME280;68062;48.726;9.370;2023-07-22T12:51:00;98491.53;;;30.94;29.54
78741;BME280;68062;48.726;9.370;2023-07-22T12:53:28;98464.94;;;30.35;30.05
78741;BME280;68062;48.726;9.370;2023-07-22T12:55:55;98485.22;;;31.15;29.99
78741;BME280;68062;48.726;9.370;2023-07-22T12:58:23;98486.22;;;30.64;29.70